Time;durP1;ratioP1;P1;durP2;ratioP2;P2;SDS_P1;SDS_P2;PMS_P1;PMS_P2;Temp;Humidity;BMP_temperature;BMP_pressure;BME280_temperature;BME280_humidity;BME280_pressure;Samples;Min_cycle;Max_cycle;Signal;HPM_P1;HPM_P2
2021/10/28 00:14:24;;;;;;;3.00;0.90;;;10.30;93.20;;;;;;4971886;28;20521;-76
2021/10/28 00:16:55;;;;;;;1.88;0.80;;;10.30;93.20;;;;;;4974470;28;20471;-75
2021/10/28 00:19:22;;;;;;;1.70;0.63;;;10.30;93.20;;;;;;4972493;28;20039;-76
2021/10/28 00:21:49;;;;;;;2.90;0.80;;;10.20;93.20;;;;;;4953242;28;20051;-76
2021/10/28 00:24:16;;;;;;;2.05;0.98;;;10.20;93.20;;;;;;4944320;28;20039;-76
2021/10/28 00:26:46;;;;;;;1.83;0.77;;;10.20;93.20;;;;;;4957355;28;20051;-76
2021/10/28 00:29:16;;;;;;;1.60;0.90;;;10.20;93.20;;;;;;4973391;28;20057;-76
2021/10/28 00:31:45;;;;;;;1.42;0.68;;;10.20;93.20;;;;;;4974711;28;20078;-76
2021/10/28 00:34:15;;;;;;;2.30;0.95;;;10.10;93.20;;;;;;4972457;28;20050;-76
2021/10/28 00:36:45;;;;;;;1.85;0.80;;;10.10;93.20;;;;;;4975505;28;20138;-76
2021/10/28 00:39:13;;;;;;;1.80;0.75;;;10.10;93.20;;;;;;4960013;28;20394;-76
2021/10/28 00:41:40;;;;;;;2.42;0.80;;;10.10;93.20;;;;;;4956321;28;20134;-76
2021/10/28 00:44:10;;;;;;;1.95;0.75;;;10.00;93.20;;;;;;4924725;28;20069;-76
2021/10/28 00:46:40;;;;;;;1.70;0.80;;;10.00;93.20;;;;;;4963609;28;20040;-76
2021/10/28 00:49:10;;;;;;;2.15;0.88;;;10.00;93.20;;;;;;4971805;28;20042;-76
2021/10/28 00:51:38;;;;;;;1.80;0.90;;;10.00;93.20;;;;;;4960428;28;20098;-76
2021/10/28 00:54:07;;;;;;;2.75;0.90;;;9.90;93.50;;;;;;4973046;28;20084;-76
2021/10/28 00:56:34;;;;;;;1.80;0.82;;;9.90;93.20;;;;;;4973107;28;20073;-76
2021/10/28 00:59:01;;;;;;;1.55;0.68;;;9.90;93.20;;;;;;4925914;29;20051;-76
2021/10/28 01:01:29;;;;;;;2.03;0.75;;;9.80;93.20;;;;;;4965713;28;20047;-76
2021/10/28 01:03:57;;;;;;;1.67;0.70;;;9.90;93.30;;;;;;4966040;28;20470;-76
2021/10/28 01:06:26;;;;;;;1.95;0.80;;;9.80;93.20;;;;;;4974607;28;20549;-76
2021/10/28 01:08:52;;;;;;;1.92;0.80;;;9.80;93.20;;;;;;4974500;28;20046;-76
2021/10/28 01:11:20;;;;;;;1.23;0.60;;;9.80;93.20;;;;;;4973479;28;20066;-76
2021/10/28 01:13:47;;;;;;;1.40;0.75;;;9.80;93.30;;;;;;4972805;28;20450;-76
2021/10/28 01:16:14;;;;;;;1.88;0.90;;;9.70;93.20;;;;;;4973239;28;20491;-76
2021/10/28 01:18:42;;;;;;;2.25;0.80;;;9.70;93.20;;;;;;4972788;28;20399;-76
2021/10/28 01:21:09;;;;;;;1.90;0.80;;;9.70;93.30;;;;;;4973069;28;20043;-76
2021/10/28 01:23:41;;;;;;;2.10;1.20;;;9.70;93.30;;;;;;4973381;28;20047;-76
2021/10/28 01:26:11;;;;;;;2.50;1.13;;;9.60;93.30;;;;;;4973790;28;20125;-76
2021/10/28 01:28:41;;;;;;;2.03;0.80;;;9.60;93.30;;;;;;4973627;28;20046;-76
2021/10/28 01:31:10;;;;;;;2.17;1.13;;;9.60;93.30;;;;;;4972828;28;20487;-76
2021/10/28 01:33:40;;;;;;;2.10;0.82;;;9.50;93.30;;;;;;4950980;28;20050;-76
2021/10/28 01:36:10;;;;;;;2.67;1.10;;;9.50;93.30;;;;;;4973060;28;20105;-76
2021/10/28 01:38:38;;;;;;;2.38;1.10;;;9.50;93.30;;;;;;4974153;28;20376;-76
2021/10/28 01:41:06;;;;;;;2.20;0.90;;;9.50;93.30;;;;;;4939778;29;20047;-76
2021/10/28 01:43:34;;;;;;;1.70;0.80;;;9.50;93.30;;;;;;4939255;28;20093;-76
2021/10/28 01:46:03;;;;;;;1.95;0.90;;;9.50;93.30;;;;;;4945681;29;20043;-76
2021/10/28 01:48:31;;;;;;;3.17;0.70;;;9.40;93.30;;;;;;4965276;28;20391;-76
2021/10/28 01:50:59;;;;;;;2.05;0.80;;;9.40;93.30;;;;;;4956340;28;20098;-76
2021/10/28 01:53:26;;;;;;;2.85;0.90;;;9.40;93.30;;;;;;4969291;28;20090;-76
2021/10/28 01:55:53;;;;;;;2.00;1.00;;;9.40;93.30;;;;;;4952664;28;20114;-76
2021/10/28 01:58:22;;;;;;;2.60;1.20;;;9.30;93.20;;;;;;4940868;28;20047;-76
2021/10/28 02:00:51;;;;;;;2.00;0.80;;;9.30;93.30;;;;;;4928085;28;20175;-76
2021/10/28 02:03:19;;;;;;;2.38;0.90;;;9.30;93.30;;;;;;4971864;28;20444;-76
2021/10/28 02:05:47;;;;;;;1.60;0.82;;;9.30;93.30;;;;;;4952059;28;20409;-76
2021/10/28 02:08:15;;;;;;;1.40;0.80;;;9.30;93.30;;;;;;4940611;28;20151;-76
2021/10/28 02:10:42;;;;;;;2.28;0.95;;;9.30;93.30;;;;;;4965632;28;20410;-76
2021/10/28 02:13:11;;;;;;;2.50;0.95;;;9.20;93.30;;;;;;4924932;28;20043;-76
2021/10/28 02:15:38;;;;;;;2.10;0.98;;;9.20;93.30;;;;;;4967674;28;21678;-75
2021/10/28 02:18:08;;;;;;;1.90;0.82;;;9.20;93.30;;;;;;4944442;28;20083;-76
2021/10/28 02:20:38;;;;;;;2.55;1.15;;;9.20;93.30;;;;;;4953122;28;20039;-76
2021/10/28 02:23:07;;;;;;;1.90;0.98;;;9.10;93.20;;;;;;4962472;28;20039;-76
2021/10/28 02:25:36;;;;;;;1.50;0.80;;;9.10;93.30;;;;;;4947384;28;20089;-76
2021/10/28 02:28:04;;;;;;;3.40;1.30;;;9.10;93.30;;;;;;4973587;28;20054;-76
2021/10/28 02:30:32;;;;;;;2.17;1.10;;;9.10;93.30;;;;;;4945902;28;20043;-76
2021/10/28 02:32:59;;;;;;;1.50;0.80;;;9.10;93.30;;;;;;4974727;28;20376;-76
2021/10/28 02:35:26;;;;;;;3.10;0.82;;;9.00;93.30;;;;;;4973916;28;20051;-76
2021/10/28 02:37:53;;;;;;;2.33;0.90;;;9.00;93.30;;;;;;4955978;28;20039;-76
2021/10/28 02:40:20;;;;;;;2.78;1.20;;;9.00;93.30;;;;;;4975517;28;20042;-76
2021/10/28 02:42:47;;;;;;;2.67;1.30;;;9.00;93.30;;;;;;4975910;28;20093;-76
2021/10/28 02:45:16;;;;;;;2.13;0.95;;;9.00;93.20;;;;;;4957091;28;20047;-76
2021/10/28 02:47:43;;;;;;;2.05;0.85;;;9.00;93.30;;;;;;4944135;28;20039;-76
2021/10/28 02:50:10;;;;;;;3.30;0.95;;;8.90;93.30;;;;;;4959286;28;20043;-76
2021/10/28 02:52:38;;;;;;;2.40;0.88;;;8.90;93.30;;;;;;4967329;28;20051;-76
2021/10/28 02:55:05;;;;;;;1.60;0.98;;;8.90;93.30;;;;;;4946352;28;20447;-75
2021/10/28 02:57:32;;;;;;;1.70;0.88;;;8.90;93.30;;;;;;4973345;28;20049;-75
2021/10/28 03:00:00;;;;;;;2.03;1.00;;;8.80;93.20;;;;;;4975558;28;20050;-75
2021/10/28 03:02:27;;;;;;;2.33;0.95;;;8.80;93.30;;;;;;4973612;28;20039;-76
2021/10/28 03:04:54;;;;;;;1.73;0.80;;;8.80;93.30;;;;;;4953443;28;20126;-75
2021/10/28 03:07:21;;;;;;;2.65;1.20;;;8.80;93.30;;;;;;4951562;28;20114;-76
2021/10/28 03:09:48;;;;;;;2.65;1.17;;;8.80;93.30;;;;;;4973730;28;20035;-76
2021/10/28 03:12:15;;;;;;;3.13;1.17;;;8.80;93.30;;;;;;4953242;28;20138;-76
2021/10/28 03:14:57;;;;;;;3.58;1.33;;;8.80;93.30;;;;;;4948906;28;20054;-76
2021/10/28 03:27:47;;;;;;;1.90;1.08;;;8.80;93.30;;;;;;4967204;28;20043;-75
2021/10/28 03:30:15;;;;;;;2.67;1.20;;;8.70;93.30;;;;;;4975098;28;20050;-75
2021/10/28 03:32:42;;;;;;;2.53;1.20;;;8.70;93.30;;;;;;4973883;28;20090;-75
2021/10/28 03:35:12;;;;;;;2.47;1.00;;;8.70;93.30;;;;;;4973446;28;20043;-75
2021/10/28 03:37:48;;;;;;;2.05;0.90;;;8.70;93.30;;;;;;4953400;28;20498;-76
2021/10/28 03:40:31;;;;;;;2.97;1.30;;;8.70;93.30;;;;;;4974559;28;20526;-75
2021/10/28 03:43:19;;;;;;;2.95;1.38;;;8.70;93.30;;;;;;4964903;28;20507;-76
2021/10/28 03:49:03;;;;;;;2.53;0.90;;;8.70;93.30;;;;;;4981037;28;20484;-76
2021/10/28 04:16:38;;;;;;;2.60;0.88;;;8.70;93.30;;;;;;4974075;28;20035;-75
2021/10/28 04:29:34;;;;;;;2.92;1.25;;;8.70;93.40;;;;;;4986927;28;20467;-75
2021/10/28 04:32:02;;;;;;;2.17;1.05;;;8.60;93.30;;;;;;4940724;28;20038;-75
2021/10/28 04:34:30;;;;;;;2.63;0.90;;;8.60;93.40;;;;;;4970242;28;20093;-75
2021/10/28 04:36:56;;;;;;;2.70;1.00;;;8.60;93.40;;;;;;4971658;28;20051;-75
2021/10/28 04:39:23;;;;;;;2.83;1.10;;;8.70;93.40;;;;;;4954431;28;20047;-76
2021/10/28 04:41:50;;;;;;;1.98;0.80;;;8.60;93.30;;;;;;4957368;28;20134;-75
2021/10/28 04:44:17;;;;;;;2.90;0.98;;;8.70;93.40;;;;;;4944217;28;20043;-75
2021/10/28 04:46:45;;;;;;;2.17;0.82;;;8.60;93.30;;;;;;4947982;28;20051;-75
2021/10/28 04:49:12;;;;;;;3.42;0.95;;;8.60;93.30;;;;;;4930674;28;20133;-75
2021/10/28 04:51:39;;;;;;;2.00;0.80;;;8.60;93.30;;;;;;4973279;28;20119;-75
2021/10/28 04:54:06;;;;;;;2.53;0.98;;;8.60;93.40;;;;;;4972854;28;20116;-75
2021/10/28 04:56:33;;;;;;;2.10;1.00;;;8.60;93.40;;;;;;4942976;29;20559;-75
2021/10/28 04:59:00;;;;;;;2.90;1.25;;;8.60;93.40;;;;;;4951405;28;20090;-75
2021/10/28 05:01:28;;;;;;;2.42;1.17;;;8.50;93.30;;;;;;4973347;28;20042;-75
2021/10/28 05:03:55;;;;;;;2.40;1.10;;;8.50;93.40;;;;;;4974214;28;20516;-75
2021/10/28 05:06:22;;;;;;;2.30;1.05;;;8.50;93.40;;;;;;4972662;28;20070;-75
2021/10/28 05:08:49;;;;;;;2.05;1.10;;;8.50;93.40;;;;;;4941031;28;20051;-76
2021/10/28 05:11:18;;;;;;;1.83;0.88;;;8.50;93.40;;;;;;4941102;28;20071;-75
2021/10/28 05:13:46;;;;;;;1.83;0.85;;;8.50;93.40;;;;;;4972909;28;20097;-75
2021/10/28 05:16:13;;;;;;;2.78;1.15;;;8.40;93.40;;;;;;4974495;28;20107;-76
2021/10/28 05:18:41;;;;;;;1.90;1.08;;;8.40;93.40;;;;;;4955918;28;20035;-75
2021/10/28 05:21:09;;;;;;;2.88;0.80;;;8.40;93.40;;;;;;4972872;28;20383;-75
2021/10/28 05:23:38;;;;;;;1.58;0.73;;;8.40;93.40;;;;;;4937169;28;20085;-75
2021/10/28 05:26:06;;;;;;;3.20;1.20;;;8.40;93.40;;;;;;4939661;28;20039;-75
2021/10/28 05:28:34;;;;;;;4.68;1.15;;;8.30;93.40;;;;;;4952851;28;20483;-75
2021/10/28 05:31:01;;;;;;;2.33;1.23;;;8.30;93.40;;;;;;4956724;28;20066;-75
2021/10/28 05:33:28;;;;;;;2.28;0.93;;;8.30;93.40;;;;;;4956626;28;20090;-75
2021/10/28 05:35:55;;;;;;;2.95;1.08;;;8.30;93.40;;;;;;4933905;29;20055;-75
2021/10/28 05:38:22;;;;;;;2.38;1.02;;;8.30;93.40;;;;;;4932276;28;20066;-75
2021/10/28 05:40:49;;;;;;;3.15;1.55;;;8.20;93.40;;;;;;4956372;28;20129;-75
2021/10/28 05:43:16;;;;;;;2.33;1.20;;;8.20;93.40;;;;;;4941012;28;20050;-75
2021/10/28 05:45:45;;;;;;;3.05;1.50;;;8.20;93.40;;;;;;4945618;28;20043;-75
2021/10/28 05:48:12;;;;;;;2.85;1.00;;;8.20;93.50;;;;;;4972418;28;20042;-75
2021/10/28 05:50:41;;;;;;;2.13;1.00;;;8.20;93.40;;;;;;4940999;28;20078;-75
2021/10/28 05:53:10;;;;;;;2.72;1.08;;;8.20;93.40;;;;;;4962710;28;20078;-75
2021/10/28 05:55:37;;;;;;;2.75;1.13;;;8.20;93.50;;;;;;4972239;28;20046;-75
2021/10/28 05:58:04;;;;;;;2.63;1.30;;;8.20;93.40;;;;;;4973549;28;20038;-75
2021/10/28 06:00:31;;;;;;;2.83;1.20;;;8.20;93.40;;;;;;4968476;28;20430;-75
2021/10/28 06:02:58;;;;;;;3.50;1.70;;;8.20;93.40;;;;;;4954974;28;20517;-75
2021/10/28 06:05:26;;;;;;;2.45;1.00;;;8.20;93.50;;;;;;4972380;28;20045;-75
2021/10/28 06:07:53;;;;;;;2.38;1.00;;;8.20;93.50;;;;;;4935973;28;20469;-75
2021/10/28 06:10:20;;;;;;;3.22;1.38;;;8.20;93.40;;;;;;4972051;28;20087;-75
2021/10/28 06:12:50;;;;;;;3.25;1.17;;;8.20;93.40;;;;;;4956344;28;20077;-75
2021/10/28 06:15:19;;;;;;;2.70;0.95;;;8.10;93.40;;;;;;4970645;28;20154;-75
2021/10/28 06:17:56;;;;;;;2.17;1.00;;;8.10;93.40;;;;;;4970847;28;20502;-75
2021/10/28 06:20:24;;;;;;;1.75;0.90;;;8.10;93.40;;;;;;4980847;28;20043;-75
2021/10/28 06:22:52;;;;;;;2.95;1.20;;;8.10;93.50;;;;;;4967988;28;20513;-75
2021/10/28 06:25:20;;;;;;;3.55;1.40;;;8.10;93.50;;;;;;4967792;28;20360;-75
2021/10/28 06:27:48;;;;;;;3.22;1.77;;;8.10;93.50;;;;;;4952644;28;20039;-76
2021/10/28 06:30:15;;;;;;;2.92;1.30;;;8.10;93.50;;;;;;4967852;28;20117;-75
2021/10/28 06:32:51;;;;;;;2.80;1.45;;;8.10;93.50;;;;;;4941508;28;20134;-76
2021/10/28 06:35:18;;;;;;;2.80;1.25;;;8.10;93.50;;;;;;4957089;28;20557;-76
2021/10/28 06:37:47;;;;;;;3.70;1.50;;;8.10;93.50;;;;;;4968047;28;20550;-76
2021/10/28 06:40:17;;;;;;;3.60;1.10;;;8.10;93.40;;;;;;4950938;28;20439;-76
2021/10/28 06:42:44;;;;;;;2.75;1.10;;;8.10;93.50;;;;;;4944042;28;20071;-76
2021/10/28 06:45:12;;;;;;;4.05;1.60;;;8.10;93.50;;;;;;4952518;28;20079;-76
2021/10/28 06:47:40;;;;;;;3.58;1.42;;;8.10;93.50;;;;;;4947376;28;20081;-76
2021/10/28 06:50:12;;;;;;;3.50;1.20;;;8.10;93.50;;;;;;4965732;28;20043;-76
2021/10/28 06:52:55;;;;;;;5.68;1.30;;;8.10;93.50;;;;;;4965081;28;20043;-76
2021/10/28 06:55:51;;;;;;;4.43;1.55;;;8.10;93.50;;;;;;4933219;28;20050;-76
2021/10/28 07:03:28;;;;;;;3.53;1.38;;;8.10;93.50;;;;;;4964472;28;20044;-76
2021/10/28 07:06:01;;;;;;;3.10;1.30;;;8.10;93.40;;;;;;4954529;28;21585;-76
2021/10/28 07:08:28;;;;;;;3.30;1.45;;;8.10;93.40;;;;;;4970177;28;20086;-75
2021/10/28 07:10:57;;;;;;;2.65;1.25;;;8.20;93.50;;;;;;4964884;28;20062;-76
2021/10/28 07:13:27;;;;;;;3.78;1.73;;;8.20;93.40;;;;;;4961943;28;20499;-74
2021/10/28 07:18:45;;;;;;;2.35;1.15;;;8.20;93.40;;;;;;4975870;28;20459;-75
2021/10/28 08:16:02;;;;;;;3.70;1.63;;;9.10;93.20;;;;;;4969894;28;20062;-76
2021/10/28 08:21:16;;;;;;;3.60;1.13;;;9.20;93.10;;;;;;4973751;28;20133;-75
2021/10/28 08:29:31;;;;;;;3.05;1.08;;;9.30;93.10;;;;;;4954892;28;20051;-74
2021/10/28 08:31:58;;;;;;;3.33;1.30;;;9.40;93.10;;;;;;4972236;28;20043;-79
2021/10/28 08:34:29;;;;;;;2.20;0.95;;;9.40;93.00;;;;;;4955213;28;20484;-77
2021/10/28 08:37:06;;;;;;;2.47;0.88;;;9.50;93.10;;;;;;4957455;28;20092;-78
2021/10/28 08:39:34;;;;;;;2.83;1.25;;;9.50;93.00;;;;;;4973441;28;20055;-78
2021/10/28 08:42:10;;;;;;;2.65;1.15;;;9.60;93.30;;;;;;4944654;28;20051;-76
2021/10/28 08:44:41;;;;;;;4.72;1.90;;;9.60;93.00;;;;;;4965877;28;20043;-77
2021/10/28 08:47:10;;;;;;;4.07;1.45;;;9.60;93.00;;;;;;4937086;28;20043;-77
2021/10/28 08:49:53;;;;;;;4.10;1.60;;;9.70;93.00;;;;;;4955100;28;20074;-77
2021/10/28 09:23:55;;;;;;;8.07;3.25;;;10.30;92.70;;;;;;4938840;28;20051;-77
2021/10/28 09:32:07;;;;;;;6.55;2.97;;;10.50;92.70;;;;;;4957781;28;20452;-76
2021/10/28 10:00:14;;;;;;;5.18;2.78;;;11.00;92.50;;;;;;4970316;28;20510;-76
2021/10/28 10:03:09;;;;;;;5.10;2.38;;;11.10;92.50;;;;;;4952548;28;20040;-76
2021/10/28 10:05:31;;;;;;;4.68;1.67;;;11.10;92.50;;;;;;4973171;28;20121;-76
2021/10/28 10:07:59;;;;;;;5.15;2.10;;;11.20;92.50;;;;;;4941892;28;20035;-76
2021/10/28 10:10:29;;;;;;;5.70;2.40;;;11.20;92.50;;;;;;4971671;28;20078;-76
2021/10/28 10:12:57;;;;;;;4.03;1.50;;;11.20;92.50;;;;;;4972354;28;20065;-75
2021/10/28 10:15:24;;;;;;;5.30;2.47;;;11.30;92.50;;;;;;4969851;28;20043;-76
2021/10/28 10:17:57;;;;;;;5.03;2.13;;;11.30;92.50;;;;;;4964724;28;20040;-76
2021/10/28 10:20:43;;;;;;;3.25;1.40;;;11.40;92.50;;;;;;4953225;28;20051;-76
2021/10/28 12:45:12;;;;;;;6.90;3.92;;;13.70;91.20;;;;;;4973468;28;20145;-76
2021/10/28 12:53:11;;;;;;;7.68;3.70;;;13.80;91.10;;;;;;4939867;28;20427;-77
2021/10/28 13:48:43;;;;;;;5.28;2.50;;;14.30;90.60;;;;;;4958927;28;20086;-77
2021/10/28 13:51:25;;;;;;;7.82;2.75;;;14.40;90.60;;;;;;4953990;28;20039;-77
2021/10/28 13:56:53;;;;;;;4.68;2.53;;;14.60;90.60;;;;;;4964655;28;20042;-77
2021/10/28 14:22:05;;;;;;;2.40;1.25;;;14.40;90.40;;;;;;4962346;28;20063;-76
2021/10/28 15:02:52;;;;;;;3.15;1.23;;;14.20;90.40;;;;;;4975319;28;20388;-75
2021/10/28 15:30:16;;;;;;;1.73;0.65;;;13.80;90.40;;;;;;4961244;28;20050;-76
2021/10/28 16:23:43;;;;;;;1.40;0.60;;;12.60;91.30;;;;;;4949767;28;20046;-79
2021/10/28 16:26:10;;;;;;;1.70;0.60;;;12.50;91.40;;;;;;4946522;29;20045;-76
2021/10/28 16:28:37;;;;;;;1.60;0.68;;;12.50;91.40;;;;;;4969621;28;20546;-76
2021/10/28 16:31:04;;;;;;;2.17;0.68;;;12.50;91.50;;;;;;4948634;28;20403;-76
2021/10/28 16:33:34;;;;;;;2.05;0.68;;;12.40;91.50;;;;;;4967952;28;20563;-76
2021/10/28 16:36:01;;;;;;;2.25;0.65;;;12.30;91.60;;;;;;4939093;28;20137;-76
2021/10/28 16:38:28;;;;;;;1.52;0.70;;;12.30;91.60;;;;;;4973997;28;20061;-76
2021/10/28 16:40:56;;;;;;;2.00;0.60;;;12.30;91.60;;;;;;4957227;28;20047;-78
2021/10/28 16:43:22;;;;;;;2.55;1.33;;;12.20;91.60;;;;;;4956853;28;20073;-76
2021/10/28 16:45:50;;;;;;;2.15;0.73;;;12.20;91.70;;;;;;4955881;28;20372;-77
2021/10/28 16:48:17;;;;;;;2.35;1.25;;;12.20;91.70;;;;;;4957522;28;20042;-77
2021/10/28 16:50:45;;;;;;;2.33;0.90;;;12.10;91.70;;;;;;4956383;28;20458;-77
2021/10/28 16:53:12;;;;;;;1.63;0.73;;;12.10;91.70;;;;;;4946350;28;20050;-77
2021/10/28 16:55:57;;;;;;;1.75;0.60;;;12.00;91.80;;;;;;4934975;28;20050;-77
2021/10/28 16:58:24;;;;;;;1.42;0.57;;;12.00;91.80;;;;;;4963293;28;20063;-78
2021/10/28 17:00:54;;;;;;;2.40;0.90;;;12.00;91.90;;;;;;4955822;28;20093;-80
2021/10/28 17:03:21;;;;;;;2.33;0.60;;;11.90;91.90;;;;;;4957764;28;20043;-77
2021/10/28 17:05:48;;;;;;;2.70;0.80;;;11.90;91.90;;;;;;4942621;28;20042;-78
2021/10/28 17:08:16;;;;;;;1.55;0.70;;;11.80;91.90;;;;;;4941633;29;20078;-77
2021/10/28 17:10:43;;;;;;;1.90;0.77;;;11.80;92.00;;;;;;4959149;28;20090;-78
2021/10/28 17:13:11;;;;;;;3.00;1.35;;;11.80;92.00;;;;;;4972782;28;20034;-78
2021/10/28 17:15:39;;;;;;;3.13;1.10;;;11.80;92.00;;;;;;4969851;28;20109;-77
2021/10/28 17:18:06;;;;;;;4.57;1.02;;;11.80;92.00;;;;;;4944278;28;20047;-77
2021/10/28 17:20:36;;;;;;;6.20;2.10;;;11.80;92.00;;;;;;4949885;28;20053;-76
2021/10/28 17:23:05;;;;;;;5.05;2.60;;;11.80;92.00;;;;;;4941479;28;20078;-76
2021/10/28 17:25:38;;;;;;;4.97;2.58;;;11.80;92.00;;;;;;4972880;28;20066;-76
2021/10/28 17:28:11;;;;;;;4.55;2.10;;;11.80;92.00;;;;;;4972354;28;20039;-77
2021/10/28 17:30:39;;;;;;;4.35;2.03;;;11.80;92.00;;;;;;4951773;29;20039;-76
2021/10/28 17:33:06;;;;;;;4.63;2.20;;;11.80;92.00;;;;;;4964031;28;20086;-77
2021/10/28 17:35:34;;;;;;;5.15;1.90;;;11.80;92.10;;;;;;4969206;28;20039;-76
2021/10/28 17:38:02;;;;;;;3.67;1.70;;;11.80;92.10;;;;;;4973595;28;20039;-76
2021/10/28 17:40:29;;;;;;;2.78;1.27;;;11.70;92.10;;;;;;4956417;28;20434;-77
2021/10/28 17:42:58;;;;;;;3.38;1.38;;;11.70;92.10;;;;;;4948809;29;20039;-80
2021/10/28 17:45:29;;;;;;;2.95;1.38;;;11.60;92.20;;;;;;4943260;28;20046;-77
2021/10/28 17:47:56;;;;;;;2.47;1.13;;;11.60;92.20;;;;;;4942953;28;20043;-78
2021/10/28 17:50:25;;;;;;;3.20;1.30;;;11.50;92.20;;;;;;4965929;28;20089;-80
2021/10/28 17:52:52;;;;;;;2.35;1.00;;;11.50;92.30;;;;;;4972192;28;20432;-79
2021/10/28 17:55:19;;;;;;;2.55;1.05;;;11.50;92.30;;;;;;4956250;28;20117;-77
2021/10/28 17:57:49;;;;;;;2.28;1.10;;;11.40;92.30;;;;;;4956575;28;20102;-77
2021/10/28 18:00:18;;;;;;;2.38;1.10;;;11.40;92.40;;;;;;4972473;28;20042;-80
2021/10/28 18:02:46;;;;;;;3.50;1.48;;;11.40;92.40;;;;;;4972600;28;20094;-76
2021/10/28 18:05:33;;;;;;;2.45;0.98;;;11.40;92.40;;;;;;4953772;28;20182;-76
2021/10/28 18:08:00;;;;;;;2.30;1.00;;;11.40;92.40;;;;;;4956545;28;20047;-76
2021/10/28 18:10:27;;;;;;;1.70;0.95;;;11.30;92.40;;;;;;4972518;28;20435;-77
2021/10/28 18:12:55;;;;;;;3.00;1.00;;;11.30;92.40;;;;;;4955534;28;20102;-77
2021/10/28 18:15:24;;;;;;;2.78;1.40;;;11.30;92.50;;;;;;4938214;28;20047;-76
2021/10/28 18:17:51;;;;;;;3.80;1.83;;;11.30;92.50;;;;;;4945415;28;20050;-77
2021/10/28 18:20:18;;;;;;;3.17;1.38;;;11.30;92.50;;;;;;4925083;28;20042;-76
2021/10/28 18:22:47;;;;;;;2.40;1.10;;;11.30;92.50;;;;;;4972622;28;20067;-80
2021/10/28 18:25:15;;;;;;;2.80;1.00;;;11.20;92.50;;;;;;4943220;28;20039;-82
2021/10/28 18:27:42;;;;;;;3.28;1.35;;;11.20;92.50;;;;;;4924615;28;20056;-79
2021/10/28 18:30:12;;;;;;;3.20;1.40;;;11.20;92.50;;;;;;4954272;28;20043;-80
2021/10/28 18:32:41;;;;;;;2.85;1.20;;;11.30;92.50;;;;;;4948647;28;21466;-78
2021/10/28 18:35:13;;;;;;;2.40;1.23;;;11.20;92.50;;;;;;4969148;28;20046;-77
2021/10/28 18:37:41;;;;;;;2.72;0.85;;;11.20;92.50;;;;;;4931100;28;20121;-78
2021/10/28 18:40:10;;;;;;;3.17;1.10;;;11.20;92.50;;;;;;4939010;28;20053;-77
2021/10/28 18:42:37;;;;;;;2.85;1.10;;;11.20;92.60;;;;;;4973144;28;20483;-77
2021/10/28 18:45:06;;;;;;;3.72;1.55;;;11.10;92.60;;;;;;4946335;28;20125;-77
2021/10/28 18:47:49;;;;;;;3.92;1.95;;;11.10;92.60;;;;;;4971868;28;20491;-78
2021/10/28 18:50:16;;;;;;;3.15;1.38;;;11.10;92.70;;;;;;4973141;28;20126;-77
2021/10/28 18:52:44;;;;;;;3.80;1.75;;;11.10;92.70;;;;;;4946104;28;20043;-77
2021/10/28 18:55:11;;;;;;;2.78;1.33;;;11.10;92.60;;;;;;4952863;28;20444;-77
2021/10/28 18:57:38;;;;;;;3.13;1.05;;;11.10;92.60;;;;;;4955541;28;20047;-77
2021/10/28 19:00:07;;;;;;;3.17;1.65;;;11.20;92.60;;;;;;4952550;28;20043;-77
2021/10/28 19:02:36;;;;;;;2.35;1.25;;;11.20;92.60;;;;;;4951765;28;20086;-77
2021/10/28 19:05:09;;;;;;;2.97;1.40;;;11.20;92.60;;;;;;4954827;28;20050;-78
2021/10/28 19:07:43;;;;;;;4.65;2.30;;;11.10;92.60;;;;;;4966806;28;20054;-78
2021/10/28 19:10:11;;;;;;;2.70;0.93;;;11.10;92.60;;;;;;4949387;28;20055;-79
2021/10/28 19:12:43;;;;;;;3.25;1.17;;;11.10;92.60;;;;;;4954054;28;20134;-77
2021/10/28 19:15:11;;;;;;;3.03;1.50;;;11.10;92.90;;;;;;4959360;28;20070;-77
2021/10/28 19:17:42;;;;;;;3.00;1.25;;;11.10;92.70;;;;;;4966135;28;20134;-77
2021/10/28 19:20:09;;;;;;;2.25;1.08;;;11.00;92.70;;;;;;4955476;28;20049;-77
2021/10/28 19:22:37;;;;;;;3.83;1.50;;;11.00;92.70;;;;;;4956022;28;20051;-76
2021/10/28 19:25:06;;;;;;;3.80;1.85;;;11.00;92.70;;;;;;4943047;28;20050;-78
2021/10/28 19:27:37;;;;;;;2.58;1.40;;;10.90;92.70;;;;;;4975035;28;20069;-77
2021/10/28 19:30:32;;;;;;;;;;;10.90;92.80;;;;;;4930550;28;20114;-77
2021/10/28 19:32:59;;;;;;;2.75;1.23;;;10.90;92.80;;;;;;4974905;28;19926;-79
2021/10/28 19:35:29;;;;;;;2.17;1.23;;;10.80;92.80;;;;;;4974522;28;20050;-78
2021/10/28 19:46:14;;;;;;;1.77;0.85;;;10.80;92.90;;;;;;4956634;28;20071;-78
2021/10/28 19:48:42;;;;;;;2.40;1.15;;;10.80;92.90;;;;;;4956197;28;20047;-78
2021/10/28 19:51:10;;;;;;;2.15;1.00;;;10.80;92.90;;;;;;4939922;28;20086;-78
2021/10/28 19:53:38;;;;;;;2.63;1.33;;;10.70;92.80;;;;;;4948487;28;20420;-78
2021/10/28 19:56:11;;;;;;;2.90;1.00;;;10.70;93.10;;;;;;4942542;28;20447;-76
2021/10/28 19:58:46;;;;;;;2.47;1.10;;;10.70;92.90;;;;;;4974539;28;20066;-78
2021/10/28 20:02:05;;;;;;;2.90;1.20;;;10.70;92.90;;;;;;4976297;28;20051;-82
2021/10/28 20:15:16;;;;;;;2.50;1.23;;;10.70;92.90;;;;;;4970810;28;20047;-75
2021/10/28 20:20:26;;;;;;;2.83;1.30;;;10.70;92.90;;;;;;4956661;28;20047;-78
2021/10/28 20:22:55;;;;;;;2.60;1.35;;;10.70;92.90;;;;;;4927151;28;20514;-78
2021/10/28 20:25:25;;;;;;;3.75;1.33;;;10.70;93.20;;;;;;4953422;28;20042;-79
2021/10/28 20:27:53;;;;;;;3.13;1.60;;;10.70;92.90;;;;;;4972487;28;20050;-79
2021/10/28 20:30:34;;;;;;;3.78;1.52;;;10.60;92.90;;;;;;4939719;28;20570;-79
2021/10/28 20:33:01;;;;;;;3.20;1.52;;;10.60;92.90;;;;;;4945692;29;20059;-80
2021/10/28 20:35:51;;;;;;;3.25;1.60;;;10.60;92.90;;;;;;4957615;28;20047;-78
2021/10/28 20:38:15;;;;;;;2.85;1.10;;;10.60;92.90;;;;;;4950206;29;20397;-79
2021/10/28 20:40:42;;;;;;;2.95;1.27;;;10.50;92.90;;;;;;4947488;28;20043;-78
2021/10/28 20:43:09;;;;;;;2.95;1.63;;;10.50;93.00;;;;;;4971161;28;20071;-77
2021/10/28 20:45:37;;;;;;;2.45;1.35;;;10.50;93.00;;;;;;4952801;28;20105;-79
2021/10/28 20:48:05;;;;;;;3.85;1.60;;;10.40;93.00;;;;;;4934118;28;20035;-80
2021/10/28 20:50:32;;;;;;;2.78;1.25;;;10.50;93.00;;;;;;4940954;28;20065;-80
2021/10/28 20:52:59;;;;;;;2.60;1.08;;;10.40;93.30;;;;;;4957925;28;20082;-78
2021/10/28 20:55:26;;;;;;;2.70;1.13;;;10.40;93.00;;;;;;4927932;28;20106;-79
2021/10/28 20:57:54;;;;;;;2.80;1.73;;;10.40;93.00;;;;;;4946411;28;20138;-78
2021/10/28 21:00:23;;;;;;;3.20;1.25;;;10.40;93.10;;;;;;4930258;29;20526;-78
2021/10/28 21:02:59;;;;;;;3.53;1.40;;;10.40;93.00;;;;;;4948586;28;20043;-77
2021/10/28 21:05:28;;;;;;;2.40;1.15;;;10.40;93.00;;;;;;4943840;28;20130;-81
2021/10/28 21:07:56;;;;;;;2.90;1.40;;;10.40;93.10;;;;;;4960630;28;20146;-81
2021/10/28 21:10:27;;;;;;;4.32;1.20;;;10.40;93.10;;;;;;4946739;29;20395;-81
2021/10/28 21:12:55;;;;;;;2.38;1.08;;;10.30;93.10;;;;;;4952752;28;20472;-81
2021/10/28 21:15:25;;;;;;;3.22;1.33;;;10.40;93.10;;;;;;4954878;28;20054;-81
2021/10/28 21:17:53;;;;;;;2.70;1.08;;;10.30;93.10;;;;;;4954731;29;20051;-82
2021/10/28 21:20:21;;;;;;;2.70;1.10;;;10.30;93.10;;;;;;4957221;28;20042;-83
2021/10/28 21:22:49;;;;;;;2.97;1.38;;;10.30;93.10;;;;;;4975078;28;20059;-84
2021/10/28 21:25:19;;;;;;;2.70;1.00;;;10.30;93.10;;;;;;4976098;28;20046;-82
2021/10/28 21:27:46;;;;;;;3.78;1.48;;;10.30;93.10;;;;;;4962680;28;20491;-80
2021/10/28 21:30:33;;;;;;;3.88;1.52;;;10.30;93.10;;;;;;4946185;28;20084;-82
2021/10/28 21:33:00;;;;;;;3.97;1.70;;;10.20;93.10;;;;;;4932794;28;20451;-80
2021/10/28 21:35:27;;;;;;;4.25;1.30;;;10.20;93.10;;;;;;4952314;28;20105;-82
2021/10/28 21:37:54;;;;;;;3.55;1.40;;;10.20;93.10;;;;;;4966711;28;20066;-77
2021/10/28 21:40:21;;;;;;;3.42;1.80;;;10.20;93.10;;;;;;4932817;28;20393;-77
2021/10/28 21:42:49;;;;;;;3.22;1.63;;;10.20;93.40;;;;;;4954254;28;20050;-77
2021/10/28 21:45:17;;;;;;;2.70;1.20;;;10.20;93.20;;;;;;4968572;28;20083;-77
2021/10/28 21:47:47;;;;;;;3.97;1.80;;;10.10;93.10;;;;;;4967211;28;20039;-78
2021/10/28 21:50:17;;;;;;;2.08;1.00;;;10.10;93.10;;;;;;4967679;28;20097;-78
2021/10/28 21:52:51;;;;;;;6.32;2.30;;;10.10;93.10;;;;;;4967971;28;20043;-78
2021/10/28 21:57:54;;;;;;;3.15;1.48;;;10.10;93.20;;;;;;4963392;28;20097;-79
2021/10/28 22:25:43;;;;;;;4.25;1.83;;;9.80;93.30;;;;;;4953933;28;20047;-78
2021/10/28 22:28:11;;;;;;;4.05;2.28;;;9.80;93.30;;;;;;4963232;28;20050;-79
2021/10/28 22:30:38;;;;;;;4.47;1.85;;;9.70;93.30;;;;;;4952865;28;20537;-78
2021/10/28 22:33:05;;;;;;;3.40;1.42;;;9.70;93.30;;;;;;4969412;28;20054;-77
2021/10/28 22:35:40;;;;;;;3.95;1.90;;;9.70;93.30;;;;;;4931158;28;20125;-77
2021/10/28 22:38:09;;;;;;;3.17;1.42;;;9.70;93.30;;;;;;4961005;28;20055;-77
2021/10/28 22:40:38;;;;;;;4.10;1.92;;;9.60;93.30;;;;;;4941173;28;20153;-78
2021/10/28 22:43:09;;;;;;;3.53;1.77;;;9.70;93.40;;;;;;4969560;28;20046;-76
2021/10/28 22:45:39;;;;;;;4.35;1.88;;;9.60;93.30;;;;;;4972744;28;20043;-76
2021/10/28 22:48:08;;;;;;;4.88;2.72;;;9.60;93.40;;;;;;4957502;28;20049;-76
2021/10/28 22:50:37;;;;;;;3.40;1.27;;;9.60;93.40;;;;;;4976541;28;20071;-77